createdAt,value
2022-11-03T00:01:26.973Z,76.25
2022-11-03T00:04:28.546Z,76.23
2022-11-03T00:07:30.225Z,76.46
2022-11-03T00:10:33.057Z,76.44
2022-11-03T00:13:35.125Z,76.48
2022-11-03T00:16:36.938Z,76.47
2022-11-03T00:19:38.602Z,76.78
2022-11-03T00:22:40.268Z,76.58
2022-11-03T00:25:43.092Z,76.50
2022-11-03T00:28:45.559Z,76.56
2022-11-03T00:31:47.073Z,76.32
2022-11-03T00:34:48.740Z,76.63
2022-11-03T00:37:50.240Z,76.86
2022-11-03T00:40:56.475Z,76.90
2022-11-03T00:43:58.077Z,76.59
2022-11-03T00:46:59.800Z,76.19
2022-11-03T00:50:01.483Z,76.01
2022-11-03T00:53:03.814Z,76.43
2022-11-03T00:56:08.126Z,76.55
2022-11-03T00:59:12.326Z,76.54
2022-11-03T01:02:14.167Z,76.55
2022-11-03T01:05:34.426Z,76.21
2022-11-03T01:08:38.861Z,76.24
2022-11-03T01:11:44.863Z,76.22
2022-11-03T01:14:47.438Z,76.10
2022-11-03T01:17:49.091Z,76.56
2022-11-03T01:20:54.392Z,76.29
2022-11-03T01:23:56.083Z,76.46
2022-11-03T01:26:59.223Z,76.80
2022-11-03T01:30:03.109Z,76.62
2022-11-03T01:33:04.871Z,76.75
2022-11-03T01:36:06.885Z,76.79
2022-11-03T01:39:10.213Z,76.64
2022-11-03T01:42:14.540Z,76.78
2022-11-03T01:45:16.305Z,76.63
2022-11-03T01:48:18.945Z,76.59
2022-11-03T01:51:22.371Z,76.78
2022-11-03T01:54:26.727Z,76.88
2022-11-03T01:57:33.506Z,77.13
2022-11-03T02:00:35.731Z,77.23
2022-11-03T02:03:39.523Z,77.41
2022-11-03T02:06:41.065Z,77.69
2022-11-03T02:09:42.634Z,77.76
2022-11-03T02:12:45.603Z,77.87
2022-11-03T02:15:47.854Z,78.12
2022-11-03T02:18:49.781Z,78.29
2022-11-03T02:21:56.882Z,78.49
2022-11-03T02:25:02.755Z,78.69
2022-11-03T02:28:06.479Z,78.77
2022-11-03T02:31:15.272Z,79.20
2022-11-03T02:34:19.793Z,79.40
2022-11-03T02:37:22.705Z,79.75
2022-11-03T02:40:26.400Z,79.62
2022-11-03T02:43:29.591Z,79.80
2022-11-03T02:46:32.594Z,80.08
2022-11-03T02:49:38.134Z,80.38
2022-11-03T02:52:40.723Z,80.11
2022-11-03T02:55:46.099Z,80.08
2022-11-03T02:58:53.166Z,80.21
2022-11-03T03:01:58.763Z,80.39
2022-11-03T03:05:01.907Z,80.56
2022-11-03T03:08:05.229Z,80.31
2022-11-03T03:11:08.339Z,80.47
2022-11-03T03:14:12.890Z,80.64
2022-11-03T03:17:17.694Z,80.55
2022-11-03T03:20:20.644Z,80.67
2022-11-03T03:23:23.349Z,80.75
2022-11-03T03:26:26.343Z,80.71
2022-11-03T03:29:31.769Z,80.80
2022-11-03T03:32:36.193Z,81.16
2022-11-03T03:35:42.703Z,81.41
2022-11-03T03:38:46.310Z,81.55
2022-11-03T03:41:48.448Z,81.68
2022-11-03T03:44:52.576Z,81.73
2022-11-03T03:47:57.664Z,82.26
2022-11-03T03:51:00.822Z,81.88
2022-11-03T03:54:02.449Z,82.31
2022-11-03T03:57:04.919Z,82.50
2022-11-03T04:00:09.231Z,82.58
2022-11-03T04:03:14.011Z,82.73
2022-11-03T04:06:15.599Z,82.79
2022-11-03T04:09:17.165Z,82.83
2022-11-03T04:12:37.406Z,83.00
2022-11-03T04:15:52.695Z,83.01
2022-11-03T04:19:12.691Z,83.24
2022-11-03T04:22:17.510Z,83.44
2022-11-03T04:25:19.083Z,83.38
2022-11-03T04:28:21.411Z,83.50
2022-11-03T04:31:24.326Z,83.69
2022-11-03T04:34:25.993Z,84.03
2022-11-03T04:37:28.504Z,83.83
2022-11-03T04:40:30.385Z,84.08
2022-11-03T04:43:33.828Z,83.87
2022-11-03T04:46:36.842Z,83.83
2022-11-03T04:49:38.698Z,84.04
2022-11-03T04:52:40.346Z,84.12
2022-11-03T04:55:42.230Z,84.24
2022-11-03T04:58:43.907Z,84.23
2022-11-03T05:01:47.693Z,84.24
2022-11-03T05:04:49.444Z,84.14
2022-11-03T05:07:52.118Z,84.19
2022-11-03T05:10:53.682Z,84.15
2022-11-03T05:13:58.124Z,84.32
2022-11-03T05:17:01.820Z,84.49
2022-11-03T05:20:03.804Z,84.24
2022-11-03T05:23:06.346Z,84.58
2022-11-03T05:26:12.357Z,84.67
2022-11-03T05:29:15.849Z,85.13
2022-11-03T05:32:21.499Z,84.79
2022-11-03T05:35:23.324Z,85.05
2022-11-03T05:38:25.753Z,85.10
2022-11-03T05:41:29.249Z,85.41
2022-11-03T05:44:33.989Z,85.11
2022-11-03T05:47:38.974Z,85.31
2022-11-03T05:50:41.623Z,85.45
2022-11-03T05:53:43.497Z,85.12
2022-11-03T05:56:45.080Z,85.29
2022-11-03T05:59:48.091Z,85.55
2022-11-03T06:02:51.081Z,85.44
2022-11-03T06:05:53.569Z,85.60
2022-11-03T06:08:56.431Z,85.51
2022-11-03T06:11:59.201Z,85.56
2022-11-03T06:15:00.753Z,85.64
2022-11-03T06:18:10.717Z,85.75
2022-11-03T06:21:14.015Z,85.83
2022-11-03T06:24:17.993Z,85.90
2022-11-03T06:27:22.046Z,85.74
2022-11-03T06:30:25.473Z,86.03
2022-11-03T06:33:29.600Z,86.46
2022-11-03T06:36:32.304Z,86.33
2022-11-03T06:39:34.161Z,86.13
2022-11-03T06:42:36.240Z,86.43
2022-11-03T06:45:37.794Z,86.85
2022-11-03T06:48:40.782Z,86.43
2022-11-03T06:51:44.933Z,86.58
2022-11-03T06:54:48.764Z,86.48
2022-11-03T06:57:52.956Z,86.50
2022-11-03T07:01:02.638Z,86.67
2022-11-03T07:04:13.184Z,86.83
2022-11-03T07:07:14.708Z,86.80
2022-11-03T07:10:16.540Z,86.73
2022-11-03T07:13:19.801Z,86.88
2022-11-03T07:16:26.180Z,86.88
2022-11-03T07:19:30.142Z,87.15
2022-11-03T07:22:31.623Z,86.73
2022-11-03T07:25:33.181Z,86.86
2022-11-03T07:28:35.730Z,87.24
2022-11-03T07:31:37.390Z,87.07
2022-11-03T07:34:40.593Z,86.98
2022-11-03T07:37:42.240Z,87.34
2022-11-03T07:40:43.799Z,87.28
2022-11-03T07:43:50.299Z,87.25
2022-11-03T07:46:51.796Z,87.23
2022-11-03T07:49:55.005Z,86.99
2022-11-03T07:52:56.636Z,87.17
2022-11-03T07:55:58.729Z,87.22
2022-11-03T07:59:01.809Z,87.24
2022-11-03T08:02:15.120Z,87.02
2022-11-03T08:08:19.906Z,86.55
2022-11-03T08:11:26.128Z,86.90
2022-11-03T08:14:31.690Z,87.13
2022-11-03T08:17:33.451Z,87.07
2022-11-03T08:20:36.636Z,86.97
2022-11-03T08:23:44.623Z,86.91
2022-11-03T08:26:49.420Z,87.05
2022-11-03T08:29:51.139Z,87.11
2022-11-03T08:32:52.814Z,87.17
2022-11-03T08:35:55.755Z,87.38
2022-11-03T08:38:57.351Z,87.49
2022-11-03T08:41:59.038Z,87.38
2022-11-03T08:45:00.575Z,87.56
2022-11-03T08:48:02.212Z,87.48
2022-11-03T08:51:05.472Z,86.75
2022-11-03T08:54:07.058Z,86.81
2022-11-03T08:57:09.033Z,86.59
2022-11-03T09:00:11.546Z,86.45
2022-11-03T09:03:13.161Z,86.26
2022-11-03T09:06:16.576Z,86.15
2022-11-03T09:12:40.087Z,86.19
2022-11-03T09:15:41.665Z,85.56
2022-11-03T09:18:43.807Z,85.82
2022-11-03T09:21:46.647Z,85.41
2022-11-03T09:24:48.103Z,85.59
2022-11-03T09:27:49.796Z,85.43
2022-11-03T09:30:51.455Z,85.16
2022-11-03T09:33:52.900Z,85.06
2022-11-03T09:36:59.274Z,85.26
2022-11-03T09:40:02.156Z,85.32
2022-11-03T09:43:03.753Z,85.53
2022-11-03T09:46:05.750Z,85.58
2022-11-03T09:49:08.348Z,85.69
2022-11-03T09:52:21.172Z,85.81
2022-11-03T09:55:24.099Z,85.64
2022-11-03T09:58:26.240Z,85.69
2022-11-03T10:01:27.930Z,85.21
2022-11-03T10:04:30.064Z,85.72
2022-11-03T10:07:32.995Z,85.42
2022-11-03T10:10:34.886Z,85.06
2022-11-03T10:13:37.869Z,85.55
2022-11-03T10:16:39.998Z,85.09
2022-11-03T10:19:41.469Z,85.00
2022-11-03T10:22:45.575Z,84.50
2022-11-03T10:25:47.127Z,84.36
2022-11-03T10:28:57.180Z,83.95
2022-11-03T10:31:58.907Z,83.82
2022-11-03T10:35:00.430Z,83.94
2022-11-03T10:38:20.412Z,84.32
2022-11-03T10:41:23.150Z,83.97
2022-11-03T10:44:26.789Z,83.90
2022-11-03T10:47:32.828Z,84.09
2022-11-03T10:50:34.419Z,83.76
2022-11-03T10:53:37.662Z,83.93
2022-11-03T10:56:39.501Z,83.79
2022-11-03T10:59:41.427Z,83.89
2022-11-03T11:02:43.844Z,84.06
2022-11-03T11:05:46.318Z,84.20
2022-11-03T11:08:50.646Z,84.39
2022-11-03T11:11:59.258Z,84.40
2022-11-03T11:15:01.415Z,84.13
2022-11-03T11:18:04.654Z,84.29
2022-11-03T11:21:34.809Z,84.11
2022-11-03T11:24:58.075Z,84.41
2022-11-03T11:28:12.071Z,84.47
2022-11-03T11:31:30.129Z,84.15
2022-11-03T11:34:41.027Z,84.20
2022-11-03T11:37:42.633Z,84.35
2022-11-03T11:40:54.800Z,84.14
2022-11-03T11:44:23.650Z,83.74
2022-11-03T11:47:30.553Z,83.85
2022-11-03T11:50:32.354Z,83.96
2022-11-03T11:53:37.668Z,84.01
2022-11-03T11:56:43.005Z,84.12
2022-11-03T11:59:46.425Z,84.02
2022-11-03T12:02:49.049Z,84.09
2022-11-03T12:05:50.822Z,83.91
2022-11-03T12:09:03.504Z,84.26
2022-11-03T12:12:08.983Z,84.11
2022-11-03T12:15:29.267Z,83.86
2022-11-03T12:18:35.152Z,83.71
2022-11-03T12:21:47.461Z,83.81
2022-11-03T12:24:50.386Z,83.74
2022-11-03T12:27:53.882Z,83.98
2022-11-03T12:30:55.526Z,83.81
2022-11-03T12:33:57.196Z,83.70
2022-11-03T12:36:58.874Z,83.89
2022-11-03T12:40:00.788Z,83.83
2022-11-03T12:43:04.036Z,83.83
2022-11-03T12:46:05.869Z,83.91
2022-11-03T12:49:07.422Z,83.74
2022-11-03T12:52:10.640Z,84.02
2022-11-03T12:55:12.667Z,83.79
2022-11-03T12:58:17.362Z,83.62
2022-11-03T13:01:19.109Z,83.46
2022-11-03T13:04:21.299Z,83.08
2022-11-03T13:07:27.929Z,83.09
2022-11-03T13:10:30.713Z,82.83
2022-11-03T13:13:33.626Z,82.67
2022-11-03T13:16:35.793Z,82.85
2022-11-03T13:19:37.432Z,81.93
2022-11-03T13:22:39.748Z,82.29
2022-11-03T13:25:41.320Z,82.29
2022-11-03T13:28:44.449Z,82.51
2022-11-03T13:31:46.022Z,82.53
2022-11-03T13:34:47.512Z,82.21
2022-11-03T13:37:49.872Z,81.81
2022-11-03T13:41:03.615Z,82.19
2022-11-03T13:44:20.022Z,82.12
2022-11-03T13:47:38.866Z,81.81
2022-11-03T13:50:43.239Z,81.75
2022-11-03T14:00:29.289Z,81.81
2022-11-03T14:06:52.512Z,81.94
2022-11-03T14:09:55.865Z,82.17
2022-11-03T14:12:59.609Z,81.88
2022-11-03T14:16:02.442Z,82.39
2022-11-03T14:19:04.211Z,82.21
2022-11-03T14:22:05.734Z,82.10
2022-11-03T14:25:09.773Z,82.19
2022-11-03T14:28:11.449Z,82.62
2022-11-03T14:31:14.832Z,82.55
2022-11-03T14:34:16.305Z,82.42
2022-11-03T14:37:18.043Z,82.70
2022-11-03T14:40:38.078Z,82.44
2022-11-03T14:43:39.683Z,82.72
2022-11-03T14:46:42.580Z,82.69
2022-11-03T14:49:45.039Z,82.61
2022-11-03T14:52:46.501Z,82.60
2022-11-03T14:55:48.145Z,82.66
2022-11-03T14:58:50.335Z,82.60
2022-11-03T15:01:53.672Z,82.94
2022-11-03T15:04:55.341Z,82.73
2022-11-03T15:07:56.890Z,83.03
2022-11-03T15:10:58.458Z,82.65
2022-11-03T15:14:00.332Z,82.71
2022-11-03T15:17:03.442Z,82.80
2022-11-03T15:20:05.559Z,82.75
2022-11-03T15:26:28.835Z,83.32
2022-11-03T15:29:30.467Z,83.51
2022-11-03T15:32:36.423Z,83.54
2022-11-03T15:35:38.423Z,83.34
2022-11-03T15:38:40.152Z,83.69
2022-11-03T15:41:41.813Z,83.58
2022-11-03T15:44:43.406Z,83.69
2022-11-03T15:47:46.285Z,83.96
2022-11-03T15:50:47.769Z,83.96
2022-11-03T15:53:52.308Z,83.82
2022-11-03T15:56:58.287Z,83.84
2022-11-03T16:00:00.222Z,83.81
2022-11-03T16:03:03.350Z,83.86
2022-11-03T16:06:05.156Z,84.06
2022-11-03T16:09:06.714Z,83.90
2022-11-03T16:12:08.868Z,83.81
2022-11-03T16:15:10.742Z,84.09
2022-11-03T16:18:14.097Z,84.23
2022-11-03T16:21:15.723Z,84.35
2022-11-03T16:24:17.494Z,84.02
2022-11-03T16:27:19.059Z,84.28
2022-11-03T16:30:20.698Z,84.40
2022-11-03T16:33:23.636Z,84.21
2022-11-03T16:36:25.238Z,84.50
2022-11-03T16:39:27.050Z,84.34
2022-11-03T16:42:29.184Z,84.60
2022-11-03T16:45:36.399Z,84.39
2022-11-03T16:48:40.738Z,84.58
2022-11-03T16:51:42.284Z,84.79
2022-11-03T16:54:44.488Z,84.91
2022-11-03T16:57:45.995Z,84.48
2022-11-03T17:00:47.598Z,84.67
2022-11-03T17:03:52.536Z,84.97
2022-11-03T17:06:54.147Z,85.00
2022-11-03T17:09:59.561Z,85.18
2022-11-03T17:13:03.044Z,85.12
2022-11-03T17:16:06.586Z,84.94
2022-11-03T17:19:10.619Z,85.09
2022-11-03T17:22:12.290Z,85.12
2022-11-03T17:25:13.983Z,84.96
2022-11-03T17:28:18.957Z,84.55
2022-11-03T17:31:20.713Z,84.86
2022-11-03T17:34:25.116Z,84.74
2022-11-03T17:37:27.411Z,85.09
2022-11-03T17:40:32.240Z,84.73
2022-11-03T17:43:37.998Z,84.73
2022-11-03T17:46:39.625Z,84.76
2022-11-03T17:49:42.845Z,84.55
2022-11-03T17:52:46.029Z,84.81
2022-11-03T17:56:02.873Z,84.49
2022-11-03T17:59:13.347Z,84.51
2022-11-03T18:02:17.612Z,84.67
2022-11-03T18:05:23.643Z,84.66
2022-11-03T18:08:25.192Z,84.61
2022-11-03T18:11:48.836Z,84.65
2022-11-03T18:14:50.490Z,84.88
2022-11-03T18:17:52.188Z,84.48
2022-11-03T18:20:55.349Z,84.25
2022-11-03T18:23:57.250Z,84.39
2022-11-03T18:26:58.871Z,85.02
2022-11-03T18:30:00.516Z,85.46
2022-11-03T18:33:02.023Z,85.53
2022-11-03T18:36:06.370Z,85.97
2022-11-03T18:39:11.407Z,85.09
2022-11-03T18:42:13.358Z,84.96
2022-11-03T18:45:16.002Z,85.28
2022-11-03T18:48:20.606Z,85.75
2022-11-03T18:51:23.560Z,85.61
2022-11-03T18:54:25.219Z,85.96
2022-11-03T18:57:26.942Z,86.21
2022-11-03T19:00:28.545Z,86.30
2022-11-03T19:03:30.064Z,86.79
2022-11-03T19:06:34.072Z,86.23
2022-11-03T19:09:35.777Z,86.20
2022-11-03T19:12:39.265Z,86.21
2022-11-03T19:15:41.122Z,86.51
2022-11-03T19:18:44.102Z,87.02
2022-11-03T19:21:50.629Z,88.16
2022-11-03T19:24:52.217Z,88.54
2022-11-03T19:27:53.849Z,88.81
2022-11-03T19:30:57.994Z,89.64
2022-11-03T19:34:00.317Z,90.48
2022-11-03T19:37:03.796Z,91.15
2022-11-03T19:40:08.902Z,91.57
2022-11-03T19:43:10.680Z,91.67
2022-11-03T19:46:17.822Z,92.47
2022-11-03T19:49:19.331Z,92.94
2022-11-03T19:52:24.985Z,92.98
2022-11-03T19:55:28.843Z,93.47
2022-11-03T19:58:30.746Z,93.78
2022-11-03T20:01:32.335Z,93.92
2022-11-03T20:04:34.144Z,94.08
2022-11-03T20:07:37.905Z,94.31
2022-11-03T20:10:39.423Z,94.50
2022-11-03T20:13:42.782Z,94.88
2022-11-03T20:16:44.460Z,95.24
2022-11-03T20:19:46.061Z,95.08
2022-11-03T20:22:51.289Z,95.07
2022-11-03T20:25:53.564Z,95.06
2022-11-03T20:28:56.185Z,95.28
2022-11-03T20:31:57.819Z,95.62
2022-11-03T20:34:59.598Z,95.80
2022-11-03T20:38:02.633Z,95.99
2022-11-03T20:41:06.627Z,95.51
2022-11-03T20:44:09.006Z,95.21
2022-11-03T20:47:12.383Z,95.09
2022-11-03T20:50:15.268Z,94.67
2022-11-03T20:53:19.728Z,94.83
2022-11-03T20:56:22.138Z,94.47
2022-11-03T20:59:24.750Z,94.77
2022-11-03T21:02:26.949Z,94.86
2022-11-03T21:05:29.161Z,95.32
2022-11-03T21:08:32.209Z,95.66
2022-11-03T21:11:36.820Z,96.38
2022-11-03T21:14:38.332Z,96.46
2022-11-03T21:17:58.551Z,96.89
2022-11-03T21:21:00.466Z,97.10
2022-11-03T21:24:03.435Z,97.65
2022-11-03T21:27:04.892Z,98.11
2022-11-03T21:30:07.677Z,97.61
2022-11-03T21:33:09.540Z,98.46
2022-11-03T21:36:11.199Z,98.14
2022-11-03T21:39:14.411Z,98.22
2022-11-03T21:42:35.227Z,97.54
2022-11-03T21:45:36.910Z,99.06
2022-11-03T21:48:57.779Z,98.71
2022-11-03T21:51:59.463Z,98.65
2022-11-03T21:55:03.050Z,98.93
2022-11-03T21:58:05.036Z,98.52
2022-11-03T22:01:06.953Z,99.12
2022-11-03T22:04:08.626Z,98.68
2022-11-03T22:07:10.703Z,99.49
2022-11-03T22:10:13.737Z,99.28
2022-11-03T22:13:15.233Z,99.71
2022-11-03T22:16:35.246Z,99.90
2022-11-03T22:19:55.323Z,100.00
2022-11-03T22:23:18.393Z,99.93
2022-11-03T22:26:39.951Z,99.73
2022-11-03T22:30:00.141Z,99.47
2022-11-03T22:33:01.754Z,99.13
2022-11-03T22:36:22.152Z,98.83
2022-11-03T22:39:42.819Z,98.51
2022-11-03T22:43:07.991Z,98.85
2022-11-03T22:46:10.594Z,98.21
2022-11-03T22:49:12.307Z,98.57
2022-11-03T22:52:14.194Z,98.05
2022-11-03T22:55:15.774Z,98.46
2022-11-03T22:58:18.937Z,98.55
2022-11-03T23:01:21.473Z,98.44
2022-11-03T23:04:23.333Z,98.63
2022-11-03T23:07:30.848Z,97.93
2022-11-03T23:10:34.078Z,98.34
2022-11-03T23:13:36.924Z,98.85
2022-11-03T23:16:39.451Z,98.65
2022-11-03T23:19:59.461Z,99.05
2022-11-03T23:23:01.170Z,98.92
2022-11-03T23:26:02.798Z,100.00
2022-11-03T23:29:08.554Z,100.00
2022-11-03T23:32:10.098Z,100.00
2022-11-03T23:35:11.663Z,100.00
2022-11-03T23:38:13.275Z,100.00
2022-11-03T23:41:16.050Z,100.00
2022-11-03T23:44:19.036Z,100.00
2022-11-03T23:47:39.116Z,100.00
2022-11-03T23:50:43.442Z,100.00
2022-11-03T23:53:45.612Z,100.00
2022-11-03T23:57:06.041Z,100.00
